Time;durP1;ratioP1;P1;durP2;ratioP2;P2;SDS_P1;SDS_P2;PMS_P1;PMS_P2;Temp;Humidity;BMP_temperature;BMP_pressure;BME280_temperature;BME280_humidity;BME280_pressure;Samples;Min_cycle;Max_cycle;Signal;HPM_P1;HPM_P2
2021/06/18 00:01:57;;;;;;;;;;;21.70;42.90;;;;;;5009531;28;20472;-82
2021/06/18 00:04:23;;;;;;;;;;;21.70;42.80;;;;;;5042319;28;19928;-82
2021/06/18 00:06:49;;;;;;;;;;;21.70;42.80;;;;;;5042447;28;19928;-81
2021/06/18 00:09:15;;;;;;;;;;;21.70;42.80;;;;;;5042447;28;19981;-82
2021/06/18 00:11:41;;;;;;;;;;;21.70;42.80;;;;;;5025583;28;20325;-81
2021/06/18 00:14:08;;;;;;;;;;;21.70;42.80;;;;;;5026136;28;19935;-83
2021/06/18 00:16:34;;;;;;;;;;;21.60;42.70;;;;;;5025825;28;19932;-82
2021/06/18 00:19:00;;;;;;;;;;;21.70;42.90;;;;;;5025935;28;19928;-81
2021/06/18 00:21:26;;;;;;;;;;;21.60;43.10;;;;;;5025742;28;19932;-82
2021/06/18 00:23:53;;;;;;;;;;;21.60;43.30;;;;;;5025659;28;19943;-83
2021/06/18 00:26:19;;;;;;;;;;;21.60;43.30;;;;;;5025398;28;19942;-83
2021/06/18 00:28:45;;;;;;;;;;;21.60;43.50;;;;;;5025673;28;19943;-83
2021/06/18 00:31:11;;;;;;;;;;;21.60;43.60;;;;;;5009717;28;19928;-82
2021/06/18 00:33:37;;;;;;;;;;;21.60;44.00;;;;;;5027685;28;19940;-81
2021/06/18 00:36:04;;;;;;;;;;;21.60;43.90;;;;;;5045465;28;20018;-83
2021/06/18 00:38:30;;;;;;;;;;;21.60;44.00;;;;;;5029049;28;19932;-84
2021/06/18 00:40:56;;;;;;;;;;;21.60;44.30;;;;;;5013007;28;19950;-82
2021/06/18 00:43:22;;;;;;;;;;;21.60;44.40;;;;;;5029907;28;19932;-81
2021/06/18 00:45:49;;;;;;;;;;;21.60;44.50;;;;;;5063191;28;19928;-82
2021/06/18 00:48:16;;;;;;;;;;;21.50;44.50;;;;;;5028680;28;20027;-83
2021/06/18 00:50:42;;;;;;;;;;;21.50;44.50;;;;;;5012640;28;19962;-82
2021/06/18 00:53:08;;;;;;;;;;;21.50;44.60;;;;;;5029084;28;20050;-84
2021/06/18 00:55:34;;;;;;;;;;;21.50;44.50;;;;;;5029206;28;19989;-84
2021/06/18 00:58:03;;;;;;;;;;;21.50;44.50;;;;;;5028987;28;20408;-84
2021/06/18 01:00:30;;;;;;;;;;;21.50;44.40;;;;;;5029135;28;20322;-84
2021/06/18 01:02:56;;;;;;;;;;;21.50;44.40;;;;;;5063394;28;19928;-82
2021/06/18 01:05:22;;;;;;;;;;;21.50;44.30;;;;;;5044629;28;19974;-82
2021/06/18 01:08:10;;;;;;;;;;;21.50;44.30;;;;;;5062499;28;19928;-82
2021/06/18 01:11:01;;;;;;;;;;;21.50;44.20;;;;;;5031235;28;19936;-81
2021/06/18 01:13:49;;;;;;;;;;;21.50;44.20;;;;;;5014564;28;19935;-85
2021/06/18 01:16:36;;;;;;;;;;;21.50;44.20;;;;;;5012082;28;19932;-82
2021/06/18 01:19:36;;;;;;;;;;;21.50;44.20;;;;;;5028651;28;19931;-80
2021/06/18 01:22:08;;;;;;;;;;;21.50;44.20;;;;;;5028087;28;19947;-82
2021/06/18 01:24:59;;;;;;;;;;;21.50;44.20;;;;;;5012065;28;19981;-81
2021/06/18 01:27:31;;;;;;;;;;;21.50;44.10;;;;;;5044945;28;19939;-81
2021/06/18 01:30:18;;;;;;;;;;;21.50;44.00;;;;;;5028033;28;19940;-81
2021/06/18 01:33:08;;;;;;;;;;;21.60;44.00;;;;;;5028259;28;19932;-81
2021/06/18 01:35:44;;;;;;;;;;;21.60;43.90;;;;;;5044260;28;20018;-80
2021/06/18 01:38:11;;;;;;;;;;;21.60;43.60;;;;;;5015958;28;19936;-81
2021/06/18 01:40:37;;;;;;;;;;;21.60;43.50;;;;;;5012776;28;19942;-82
2021/06/18 01:43:05;;;;;;;;;;;21.60;43.50;;;;;;5045740;28;19932;-80
2021/06/18 01:45:31;;;;;;;;;;;21.60;43.50;;;;;;5027678;28;19943;-81
2021/06/18 01:47:58;;;;;;;;;;;21.70;43.60;;;;;;5011741;28;19936;-82
2021/06/18 01:50:25;;;;;;;;;;;21.70;43.40;;;;;;5027983;28;19951;-80
2021/06/18 01:53:12;;;;;;;;;;;21.80;43.40;;;;;;5044198;28;20368;-81
2021/06/18 01:55:38;;;;;;;;;;;21.80;43.20;;;;;;5047180;28;19942;-81
2021/06/18 01:58:05;;;;;;;;;;;21.90;43.10;;;;;;5044621;28;20441;-82
2021/06/18 02:00:33;;;;;;;;;;;21.90;42.80;;;;;;5043936;28;20426;-81
2021/06/18 02:03:01;;;;;;;;;;;21.90;42.80;;;;;;5044185;28;19928;-81
2021/06/18 02:05:27;;;;;;;;;;;22.00;42.60;;;;;;5011302;28;19943;-83
2021/06/18 02:07:54;;;;;;;;;;;22.00;42.40;;;;;;5010965;28;19943;-82
2021/06/18 02:10:20;;;;;;;;;;;22.10;42.50;;;;;;5027765;28;19946;-81
2021/06/18 02:12:47;;;;;;;;;;;22.20;42.50;;;;;;5011210;28;19943;-82
2021/06/18 02:15:14;;;;;;;;;;;22.50;42.40;;;;;;5011031;28;19932;-82
2021/06/18 02:17:40;;;;;;;;;;;23.00;41.90;;;;;;5010684;28;20330;-81
2021/06/18 02:20:07;;;;;;;;;;;23.50;40.50;;;;;;5043976;28;19932;-81
2021/06/18 02:22:34;;;;;;;;;;;23.90;40.00;;;;;;5027213;28;19959;-81
2021/06/18 02:25:01;;;;;;;;;;;24.40;38.50;;;;;;5010354;28;19931;-81
2021/06/18 02:27:27;;;;;;;;;;;24.80;37.50;;;;;;5011322;28;19936;-81
2021/06/18 02:29:53;;;;;;;;;;;25.10;36.80;;;;;;5010951;28;19936;-81
2021/06/18 02:32:19;;;;;;;;;;;25.40;35.70;;;;;;5027270;28;19934;-81
2021/06/18 02:34:46;;;;;;;;;;;25.80;35.30;;;;;;5010523;28;19959;-82
2021/06/18 02:37:12;;;;;;;;;;;26.20;35.00;;;;;;5011524;28;19936;-81
2021/06/18 02:39:39;;;;;;;;;;;26.50;33.90;;;;;;5026924;28;19931;-82
2021/06/18 02:42:05;;;;;;;;;;;26.80;32.80;;;;;;5011559;28;19985;-82
2021/06/18 02:44:31;;;;;;;;;;;27.10;32.30;;;;;;5026868;28;19943;-82
2021/06/18 02:47:04;;;;;;;;;;;27.30;31.20;;;;;;5027665;28;19928;-81
2021/06/18 02:49:44;;;;;;;;;;;27.50;30.40;;;;;;5010501;28;19931;-80
2021/06/18 02:52:14;;;;;;;;;;;27.50;29.90;;;;;;5043281;28;19932;-82
2021/06/18 02:54:44;;;;;;;;;;;27.60;29.60;;;;;;5010514;28;19947;-82
2021/06/18 02:57:31;;;;;;;;;;;27.60;29.20;;;;;;5009986;28;19955;-81
2021/06/18 03:00:04;;;;;;;;;;;27.40;28.70;;;;;;5042742;28;19927;-82
2021/06/18 03:02:33;;;;;;;;;;;27.20;29.10;;;;;;5027219;28;19932;-82
2021/06/18 03:05:00;;;;;;;;;;;27.10;29.10;;;;;;5011080;28;19932;-81
2021/06/18 03:07:29;;;;;;;;;;;27.00;29.10;;;;;;5026722;28;19939;-83
2021/06/18 03:09:58;;;;;;;;;;;26.70;29.20;;;;;;5010360;28;20324;-81
2021/06/18 03:12:25;;;;;;;;;;;26.30;29.60;;;;;;5011340;28;19989;-82
2021/06/18 03:14:51;;;;;;;;;;;26.00;29.70;;;;;;5027822;28;19939;-82
2021/06/18 03:17:18;;;;;;;;;;;25.60;29.60;;;;;;5028729;28;19928;-82
2021/06/18 03:19:50;;;;;;;;;;;25.20;30.00;;;;;;5011201;28;19932;-82
2021/06/18 03:22:16;;;;;;;;;;;24.90;30.30;;;;;;5032591;28;19943;-81
2021/06/18 03:24:45;;;;;;;;;;;24.60;30.60;;;;;;5012840;28;19942;-82
2021/06/18 03:27:11;;;;;;;;;;;24.40;31.10;;;;;;5025825;28;19940;-82
2021/06/18 03:29:38;;;;;;;;;;;24.20;31.50;;;;;;5027333;28;19932;-82
2021/06/18 03:32:04;;;;;;;;;;;24.20;31.50;;;;;;5010214;28;20449;-81
2021/06/18 03:34:30;;;;;;;;;;;24.00;31.70;;;;;;5059922;28;19958;-82
2021/06/18 03:36:56;;;;;;;;;;;24.00;31.80;;;;;;5025895;28;19928;-83
2021/06/18 03:39:22;;;;;;;;;;;24.00;31.80;;;;;;5009904;28;19931;-83
2021/06/18 03:41:48;;;;;;;;;;;24.00;31.80;;;;;;5009779;28;20394;-91
2021/06/18 03:44:15;;;;;;;;;;;24.00;31.10;;;;;;5009328;28;20440;-81
2021/06/18 03:46:41;;;;;;;;;;;23.90;30.90;;;;;;5060688;28;19967;-94
2021/06/18 03:49:07;;;;;;;;;;;23.90;31.10;;;;;;5042918;28;19946;-87
2021/06/18 03:51:35;;;;;;;;;;;24.00;31.30;;;;;;5026679;28;20016;-85
2021/06/18 03:54:01;;;;;;;;;;;24.00;31.00;;;;;;5026305;28;19985;-84
2021/06/18 03:56:28;;;;;;;;;;;24.00;30.80;;;;;;5010655;28;19943;-85
2021/06/18 03:58:54;;;;;;;;;;;24.00;30.30;;;;;;5026373;28;19932;-85
2021/06/18 04:01:20;;;;;;;;;;;24.00;30.10;;;;;;5042296;28;19932;-88
2021/06/18 04:03:47;;;;;;;;;;;24.00;30.30;;;;;;5026697;28;19954;-84
2021/06/18 04:06:13;;;;;;;;;;;24.00;30.40;;;;;;5009787;28;19985;-85
2021/06/18 04:08:39;;;;;;;;;;;24.00;30.40;;;;;;5027447;28;20390;-85
2021/06/18 04:11:06;;;;;;;;;;;24.00;30.40;;;;;;5029695;28;19935;-86
2021/06/18 04:13:32;;;;;;;;;;;24.10;30.10;;;;;;5030439;28;19943;-87
2021/06/18 04:15:59;;;;;;;;;;;24.20;30.00;;;;;;5029462;28;19928;-86
2021/06/18 04:18:25;;;;;;;;;;;24.30;29.30;;;;;;5028880;28;19931;-85
2021/06/18 04:20:51;;;;;;;;;;;24.30;29.50;;;;;;5029643;28;20046;-88
2021/06/18 04:23:30;;;;;;;;;;;24.30;29.50;;;;;;5031045;28;19989;-86
2021/06/18 04:25:57;;;;;;;;;;;24.30;29.30;;;;;;5048656;28;20450;-85
2021/06/18 04:28:23;;;;;;;;;;;24.30;29.30;;;;;;5030529;28;19936;-85
2021/06/18 04:30:49;;;;;;;;;;;24.40;29.10;;;;;;5046460;28;19927;-86
2021/06/18 04:33:15;;;;;;;;;;;24.40;29.00;;;;;;5030218;28;20027;-86
2021/06/18 04:35:42;;;;;;;;;;;24.50;29.00;;;;;;5013269;28;19943;-86
2021/06/18 04:38:08;;;;;;;;;;;24.60;28.80;;;;;;5046885;28;19928;-86
2021/06/18 04:40:34;;;;;;;;;;;24.70;28.70;;;;;;5015202;28;19928;-85
2021/06/18 04:43:01;;;;;;;;;;;24.80;28.30;;;;;;5013746;28;19928;-85
2021/06/18 04:45:27;;;;;;;;;;;25.00;28.30;;;;;;5064890;28;20018;-86
2021/06/18 04:47:55;;;;;;;;;;;25.20;28.10;;;;;;5064476;28;19938;-85
2021/06/18 04:50:21;;;;;;;;;;;25.70;27.60;;;;;;5063920;28;19935;-86
2021/06/18 04:52:48;;;;;;;;;;;26.90;26.10;;;;;;5047055;28;19928;-86
2021/06/18 04:55:17;;;;;;;;;;;27.90;25.30;;;;;;4996866;28;19928;-86
2021/06/18 04:57:44;;;;;;;;;;;28.40;24.40;;;;;;5030468;28;19947;-88
2021/06/18 05:00:11;;;;;;;;;;;29.10;24.60;;;;;;5046146;28;20335;-88
2021/06/18 05:02:37;;;;;;;;;;;30.30;23.80;;;;;;5005458;28;19932;-87
2021/06/18 05:05:03;;;;;;;;;;;31.70;22.70;;;;;;5040854;28;19932;-86
2021/06/18 05:07:30;;;;;;;;;;;33.20;21.20;;;;;;5047292;28;19928;-84
2021/06/18 05:09:56;;;;;;;;;;;34.50;19.00;;;;;;5047950;28;19947;-85
2021/06/18 05:12:22;;;;;;;;;;;35.50;17.00;;;;;;5064690;28;19932;-85
2021/06/18 05:14:48;;;;;;;;;;;36.00;15.80;;;;;;5030518;28;19928;-89
2021/06/18 05:17:15;;;;;;;;;;;36.50;15.20;;;;;;5066483;28;19963;-86
2021/06/18 05:19:41;;;;;;;;;;;37.00;15.00;;;;;;5015063;28;19928;-86
2021/06/18 05:22:08;;;;;;;;;;;37.40;14.40;;;;;;5047295;28;20283;-86
2021/06/18 05:24:34;;;;;;;;;;;38.10;13.90;;;;;;5047260;28;19932;-87
2021/06/18 05:27:00;;;;;;;;;;;38.40;12.50;;;;;;5029914;28;19963;-87
2021/06/18 05:29:26;;;;;;;;;;;38.40;12.20;;;;;;5013981;28;19985;-86
2021/06/18 05:31:52;;;;;;;;;;;38.50;12.30;;;;;;5029334;28;19932;-86
2021/06/18 05:34:18;;;;;;;;;;;38.70;12.60;;;;;;5014059;28;19928;-85
2021/06/18 05:36:45;;;;;;;;;;;39.00;12.20;;;;;;5030891;28;19939;-85
2021/06/18 05:39:15;;;;;;;;;;;39.30;11.80;;;;;;5015949;28;19948;-87
2021/06/18 05:41:41;;;;;;;;;;;39.70;11.80;;;;;;5014946;28;19928;-87
2021/06/18 05:44:07;;;;;;;;;;;40.30;11.50;;;;;;5015011;28;19928;-85
2021/06/18 05:46:33;;;;;;;;;;;40.90;11.20;;;;;;5031085;28;19984;-86
2021/06/18 05:49:00;;;;;;;;;;;41.60;10.40;;;;;;5032364;28;19943;-89
2021/06/18 05:51:26;;;;;;;;;;;41.90;9.80;;;;;;5033111;28;19936;-87
2021/06/18 05:53:53;;;;;;;;;;;41.50;9.30;;;;;;5050004;28;19939;-86
2021/06/18 05:56:21;;;;;;;;;;;40.30;10.30;;;;;;5033791;28;19989;-86
2021/06/18 05:58:47;;;;;;;;;;;39.90;11.00;;;;;;5033999;28;19936;-86
2021/06/18 06:01:13;;;;;;;;;;;40.20;11.00;;;;;;5067345;28;19928;-87
2021/06/18 06:03:40;;;;;;;;;;;40.80;11.00;;;;;;5032992;28;19984;-86
2021/06/18 06:06:10;;;;;;;;;;;41.60;10.00;;;;;;5034192;28;19942;-87
2021/06/18 06:08:37;;;;;;;;;;;42.00;9.70;;;;;;5032949;28;20416;-86
2021/06/18 06:11:03;;;;;;;;;;;42.00;9.70;;;;;;5031292;28;20393;-85
2021/06/18 06:13:29;;;;;;;;;;;42.10;9.20;;;;;;5032060;28;19978;-85
2021/06/18 06:15:56;;;;;;;;;;;42.20;9.30;;;;;;5051134;28;19942;-86
2021/06/18 06:18:22;;;;;;;;;;;42.60;9.50;;;;;;5034896;28;19932;-87
2021/06/18 06:20:48;;;;;;;;;;;43.40;8.70;;;;;;5048910;28;19969;-85
2021/06/18 06:23:15;;;;;;;;;;;43.60;8.40;;;;;;5031607;28;20015;-91
2021/06/18 06:26:02;;;;;;;;;;;43.10;7.90;;;;;;5033172;28;19947;-90
2021/06/18 06:28:38;;;;;;;;;;;42.00;8.50;;;;;;5036105;28;19946;-90
2021/06/18 06:31:04;;;;;;;;;;;41.80;8.90;;;;;;5031656;28;19932;-87
2021/06/18 06:33:30;;;;;;;;;;;42.00;8.90;;;;;;5031338;28;20493;-88
2021/06/18 06:35:56;;;;;;;;;;;41.30;8.80;;;;;;5018296;28;19978;-87
2021/06/18 06:38:23;;;;;;;;;;;41.10;9.20;;;;;;5065780;28;19931;-87
2021/06/18 06:40:50;;;;;;;;;;;40.70;9.10;;;;;;5046578;28;19988;-87
2021/06/18 06:43:16;;;;;;;;;;;39.70;9.70;;;;;;5046882;28;19984;-86
2021/06/18 06:45:42;;;;;;;;;;;38.90;10.70;;;;;;5047162;28;20018;-86
2021/06/18 06:48:08;;;;;;;;;;;39.20;10.70;;;;;;5031743;28;19932;-85
2021/06/18 06:50:34;;;;;;;;;;;40.00;10.40;;;;;;5014051;28;19989;-87
2021/06/18 06:53:01;;;;;;;;;;;41.00;9.60;;;;;;5015043;28;19932;-87
2021/06/18 06:55:27;;;;;;;;;;;40.70;8.90;;;;;;5032676;28;19932;-86
2021/06/18 06:57:53;;;;;;;;;;;40.50;9.40;;;;;;5045473;28;20018;-86
2021/06/18 07:00:19;;;;;;;;;;;41.20;9.00;;;;;;5029649;28;20003;-86
2021/06/18 07:02:47;;;;;;;;;;;42.20;7.90;;;;;;5031462;28;19977;-88
2021/06/18 07:05:13;;;;;;;;;;;43.00;7.40;;;;;;4995913;28;19935;-88
2021/06/18 07:07:40;;;;;;;;;;;42.80;6.80;;;;;;5028771;28;19940;-87
2021/06/18 07:10:06;;;;;;;;;;;41.60;7.40;;;;;;5046720;28;20322;-86
2021/06/18 07:12:33;;;;;;;;;;;41.30;8.20;;;;;;4996402;28;19936;-86
2021/06/18 07:14:59;;;;;;;;;;;42.30;8.00;;;;;;5029408;28;19954;-86
2021/06/18 07:17:26;;;;;;;;;;;43.40;7.90;;;;;;5028997;28;19947;-87
2021/06/18 07:19:54;;;;;;;;;;;44.20;6.40;;;;;;5017071;28;19928;-87
2021/06/18 07:22:21;;;;;;;;;;;45.20;7.10;;;;;;5034641;28;19943;-86
2021/06/18 07:24:48;;;;;;;;;;;46.10;5.10;;;;;;5030443;28;19939;-88
2021/06/18 07:27:15;;;;;;;;;;;46.60;4.80;;;;;;5029134;28;19962;-86
2021/06/18 07:29:42;;;;;;;;;;;46.80;4.30;;;;;;5031159;28;20393;-87
2021/06/18 07:32:08;;;;;;;;;;;45.20;4.70;;;;;;5013487;28;19943;-86
2021/06/18 07:34:35;;;;;;;;;;;43.80;5.80;;;;;;5029227;28;19951;-87
2021/06/18 07:37:01;;;;;;;;;;;43.70;6.40;;;;;;5013008;28;19928;-87
2021/06/18 07:39:27;;;;;;;;;;;44.40;6.00;;;;;;5028315;28;20472;-86
2021/06/18 07:41:53;;;;;;;;;;;44.10;5.90;;;;;;5028900;28;19928;-87
2021/06/18 07:44:19;;;;;;;;;;;43.40;6.30;;;;;;5048871;28;20010;-85
2021/06/18 07:46:45;;;;;;;;;;;43.90;6.60;;;;;;5031081;28;20025;-85
2021/06/18 07:49:11;;;;;;;;;;;44.90;6.60;;;;;;5013605;28;19936;-83
2021/06/18 07:51:37;;;;;;;;;;;45.80;5.10;;;;;;5013703;28;19939;-86
2021/06/18 07:54:04;;;;;;;;;;;46.50;4.70;;;;;;5030250;28;19935;-85
2021/06/18 07:56:33;;;;;;;;;;;47.00;4.20;;;;;;5047473;28;19928;-85
2021/06/18 07:58:59;;;;;;;;;;;46.90;4.00;;;;;;5032899;28;19928;-85
2021/06/18 08:01:25;;;;;;;;;;;45.30;4.50;;;;;;5031530;28;20330;-86
2021/06/18 08:03:52;;;;;;;;;;;43.50;5.60;;;;;;5014230;28;19946;-87
2021/06/18 08:06:18;;;;;;;;;;;41.80;6.80;;;;;;5063726;28;19965;-87
2021/06/18 08:08:45;;;;;;;;;;;40.60;7.90;;;;;;5063536;28;19966;-88
2021/06/18 08:11:11;;;;;;;;;;;39.60;8.60;;;;;;5046307;28;19932;-88
2021/06/18 08:13:37;;;;;;;;;;;39.30;9.40;;;;;;5046257;28;19932;-88
2021/06/18 08:16:04;;;;;;;;;;;39.60;9.20;;;;;;5029528;28;20468;-89
2021/06/18 08:18:31;;;;;;;;;;;39.40;9.00;;;;;;5029497;28;19989;-88
2021/06/18 08:20:57;;;;;;;;;;;38.90;9.40;;;;;;5028966;28;19928;-87
2021/06/18 08:23:23;;;;;;;;;;;39.40;9.60;;;;;;5032349;28;19936;-89
2021/06/18 08:25:50;;;;;;;;;;;40.70;8.90;;;;;;5016752;28;19940;-87
2021/06/18 08:28:17;;;;;;;;;;;42.30;7.70;;;;;;5032995;28;19939;-90
2021/06/18 08:30:43;;;;;;;;;;;43.70;6.50;;;;;;5034336;28;19932;-90
2021/06/18 08:33:09;;;;;;;;;;;44.40;5.80;;;;;;5013284;28;19961;-89
2021/06/18 08:37:19;;;;;;;4.57;0.90;;;45.50;4.20;;;;;;4356656;32;20115;-88
2021/06/18 08:39:47;;;;;;;1.67;1.00;;;45.70;4.60;;;;;;5058117;28;20024;-87
2021/06/18 08:42:13;;;;;;;4.25;0.90;;;46.00;4.60;;;;;;5010997;28;20040;-88
2021/06/18 08:44:39;;;;;;;2.80;0.80;;;46.20;4.20;;;;;;5063385;28;20103;-90
2021/06/18 08:47:06;;;;;;;2.47;0.80;;;45.90;3.90;;;;;;5015528;28;20036;-91
2021/06/18 08:49:32;;;;;;;3.20;0.90;;;45.70;4.30;;;;;;5053535;28;20092;-90
2021/06/18 08:51:58;;;;;;;2.80;1.10;;;45.70;4.40;;;;;;5066346;28;20501;-88
2021/06/18 08:54:41;;;;;;;1.45;0.70;;;45.80;4.60;;;;;;5045536;28;20043;-87
2021/06/18 08:57:13;;;;;;;9.32;1.20;;;46.20;4.20;;;;;;5058062;28;20040;-92
2021/06/18 08:59:39;;;;;;;6.88;1.40;;;45.30;4.30;;;;;;5008290;28;20117;-89
2021/06/18 09:02:06;;;;;;;1.38;0.95;;;44.70;5.10;;;;;;5007849;28;20028;-86
2021/06/18 09:04:32;;;;;;;3.50;1.17;;;44.90;5.00;;;;;;5056313;28;20052;-85
2021/06/18 09:06:59;;;;;;;1.25;0.90;;;45.00;5.10;;;;;;5055900;28;20043;-85
2021/06/18 09:09:27;;;;;;;3.20;1.00;;;45.40;4.80;;;;;;5024572;28;20469;-85
2021/06/18 09:12:03;;;;;;;4.22;1.10;;;45.60;4.60;;;;;;5041725;28;20090;-87
2021/06/18 09:14:37;;;;;;;0.90;0.73;;;46.00;4.60;;;;;;5046110;28;20032;-85
2021/06/18 09:17:20;;;;;;;2.10;1.13;;;46.20;4.30;;;;;;5012179;28;20036;-86
2021/06/18 09:19:49;;;;;;;2.20;0.70;;;46.10;4.50;;;;;;5024657;28;20044;-85
2021/06/18 09:22:24;;;;;;;1.35;0.90;;;45.80;4.30;;;;;;5023425;28;20032;-84
2021/06/18 09:25:13;;;;;;;2.15;0.98;;;45.70;4.40;;;;;;5057082;28;20042;-87
2021/06/18 09:27:50;;;;;;;3.95;0.70;;;45.60;4.50;;;;;;5040004;28;20032;-86
2021/06/18 09:30:18;;;;;;;4.65;2.78;;;45.80;4.30;;;;;;5026221;28;20119;-88
2021/06/18 09:33:11;;;;;;;3.15;1.38;;;46.00;4.30;;;;;;5059038;28;20115;-85
2021/06/18 09:35:38;;;;;;;2.43;1.10;;;45.90;4.10;;;;;;5023837;28;20054;-85
2021/06/18 09:38:07;;;;;;;2.58;1.13;;;45.90;4.20;;;;;;5006983;28;20055;-87
2021/06/18 09:40:33;;;;;;;4.38;1.80;;;46.20;4.20;;;;;;5039465;28;20454;-86
2021/06/18 09:43:02;;;;;;;8.38;6.60;;;46.70;4.00;;;;;;5006462;28;20036;-84
2021/06/18 09:45:33;;;;;;;7.50;3.13;;;47.20;3.60;;;;;;5056732;28;20032;-87
2021/06/18 09:48:21;;;;;;;2.25;1.20;;;47.00;3.10;;;;;;5046249;28;20538;-86
2021/06/18 09:50:49;;;;;;;2.25;1.35;;;46.50;3.20;;;;;;5044904;28;20066;-85
2021/06/18 09:53:23;;;;;;;2.58;1.10;;;45.80;3.40;;;;;;5044530;28;20047;-85
2021/06/18 09:56:05;;;;;;;2.72;1.20;;;44.60;4.10;;;;;;5029156;28;20040;-88
2021/06/18 09:58:39;;;;;;;3.67;1.35;;;43.50;4.60;;;;;;5002210;28;20048;-87
2021/06/18 10:01:25;;;;;;;2.17;0.93;;;42.20;5.30;;;;;;5003194;28;20036;-87
2021/06/18 10:04:07;;;;;;;2.10;1.05;;;40.80;6.10;;;;;;5038004;28;20581;-88
2021/06/18 10:06:37;;;;;;;3.55;1.10;;;39.50;7.10;;;;;;5004548;28;20177;-86
2021/06/18 10:09:05;;;;;;;7.55;2.10;;;38.30;8.20;;;;;;5037936;28;20052;-87
2021/06/18 10:11:32;;;;;;;1.52;1.17;;;37.20;9.10;;;;;;5022591;28;20036;-88
2021/06/18 10:13:58;;;;;;;4.53;0.98;;;36.10;10.00;;;;;;5018390;28;20105;-88
2021/06/18 10:16:26;;;;;;;2.10;0.90;;;35.30;10.90;;;;;;5036638;28;20063;-86
2021/06/18 10:18:56;;;;;;;4.70;1.25;;;34.60;11.80;;;;;;5001111;28;20036;-85
2021/06/18 10:21:22;;;;;;;2.10;1.05;;;34.00;12.50;;;;;;5014367;28;20104;-84
2021/06/18 10:23:50;;;;;;;3.92;1.17;;;33.50;12.90;;;;;;5000528;28;20032;-86
2021/06/18 10:26:16;;;;;;;3.63;1.23;;;33.00;13.40;;;;;;5014238;28;20032;-85
2021/06/18 10:28:59;;;;;;;8.25;1.40;;;32.60;13.60;;;;;;5014220;28;20035;-87
2021/06/18 10:31:36;;;;;;;3.42;1.23;;;32.30;14.10;;;;;;5014486;28;20062;-85
2021/06/18 10:34:07;;;;;;;5.40;1.40;;;31.90;14.10;;;;;;5013210;28;20036;-86
2021/06/18 10:36:34;;;;;;;2.78;1.00;;;31.60;14.50;;;;;;5026565;28;20043;-85
2021/06/18 10:39:14;;;;;;;8.10;1.30;;;31.30;15.00;;;;;;5019620;28;20044;-85
2021/06/18 10:41:58;;;;;;;4.30;1.40;;;31.00;15.40;;;;;;5052206;28;20035;-85
2021/06/18 10:44:39;;;;;;;5.28;1.35;;;30.80;15.10;;;;;;5024016;28;20035;-86
2021/06/18 10:47:35;;;;;;;4.03;0.90;;;30.60;15.10;;;;;;5078557;28;20036;-88
2021/06/18 10:50:03;;;;;;;6.10;1.45;;;30.50;15.20;;;;;;5061316;28;20036;-88
2021/06/18 10:52:38;;;;;;;3.42;0.90;;;30.40;15.40;;;;;;5041607;28;20063;-90
2021/06/18 10:55:05;;;;;;;6.32;1.20;;;30.30;15.60;;;;;;5021548;28;20534;-88
2021/06/18 10:57:31;;;;;;;1.67;1.02;;;30.20;15.50;;;;;;5049112;28;20047;-88
2021/06/18 11:00:23;;;;;;;1.80;0.75;;;30.00;15.70;;;;;;5012024;28;20093;-87
2021/06/18 11:02:51;;;;;;;4.00;1.10;;;29.90;15.90;;;;;;5029124;28;20036;-88
2021/06/18 11:05:17;;;;;;;2.65;0.77;;;29.70;16.30;;;;;;5028422;28;20043;-89
2021/06/18 11:07:43;;;;;;;;;;;29.60;16.90;;;;;;5062267;28;20039;-89
2021/06/18 11:10:16;;;;;;;4.45;1.17;;;29.50;16.80;;;;;;5029814;28;19927;-87
2021/06/18 11:12:47;;;;;;;1.38;0.80;;;29.40;16.60;;;;;;5048807;28;20541;-87
2021/06/18 11:15:16;;;;;;;4.45;1.15;;;29.40;16.50;;;;;;5019010;28;20518;-87
2021/06/18 11:18:01;;;;;;;0.75;0.70;;;29.20;16.90;;;;;;5047381;28;20054;-88
2021/06/18 11:20:34;;;;;;;2.72;0.98;;;29.10;16.90;;;;;;5014581;28;20031;-87
2021/06/18 11:23:17;;;;;;;2.85;0.88;;;29.00;16.80;;;;;;5045899;28;20035;-86
2021/06/18 11:25:59;;;;;;;4.72;1.10;;;28.90;16.80;;;;;;5047228;28;20036;-88
2021/06/18 11:28:31;;;;;;;3.58;0.90;;;28.80;16.70;;;;;;5026892;28;20055;-88
2021/06/18 11:31:12;;;;;;;4.22;0.95;;;28.60;16.60;;;;;;5063219;28;20123;-87
2021/06/18 11:36:09;;;;;;;3.10;1.00;;;28.50;17.00;;;;;;5061046;28;20050;-86
2021/06/18 11:38:35;;;;;;;5.05;1.20;;;28.40;16.60;;;;;;5028249;28;20066;-86
2021/06/18 11:41:05;;;;;;;2.45;0.80;;;28.30;16.50;;;;;;5029560;28;20067;-88
2021/06/18 11:43:32;;;;;;;4.47;0.90;;;28.20;16.70;;;;;;5043573;28;20047;-87
2021/06/18 11:45:59;;;;;;;4.47;1.13;;;28.10;16.90;;;;;;5063675;28;20036;-86
2021/06/18 11:48:25;;;;;;;4.50;2.50;;;28.10;17.20;;;;;;5051266;28;20031;-89
2021/06/18 11:50:52;;;;;;;6.38;1.60;;;28.10;17.10;;;;;;5030611;28;20040;-85
2021/06/18 11:53:19;;;;;;;3.42;1.33;;;28.10;17.00;;;;;;5046760;28;20586;-86
2021/06/18 11:55:55;;;;;;;1.80;0.70;;;28.10;17.10;;;;;;5020186;28;20035;-88
2021/06/18 11:58:38;;;;;;;1.27;0.85;;;28.00;17.20;;;;;;5051528;28;20055;-87
2021/06/18 12:01:17;;;;;;;3.35;0.80;;;28.00;17.50;;;;;;5033269;28;20032;-87
2021/06/18 12:03:52;;;;;;;1.13;0.82;;;27.90;17.40;;;;;;5030224;28;20044;-88
2021/06/18 12:06:28;;;;;;;2.33;0.90;;;27.80;17.20;;;;;;5043425;28;20059;-86
2021/06/18 12:12:03;;;;;;;3.80;1.20;;;27.70;17.70;;;;;;4391380;32;20114;-86
2021/06/18 12:14:40;;;;;;;2.47;0.90;;;27.70;17.70;;;;;;5081777;28;20031;-86
2021/06/18 12:17:07;;;;;;;1.50;0.70;;;27.60;17.80;;;;;;5082793;28;20035;-87
2021/06/18 12:19:44;;;;;;;3.65;1.10;;;27.60;18.00;;;;;;5049363;28;20522;-87
2021/06/18 12:22:11;;;;;;;2.13;0.80;;;27.60;18.40;;;;;;5066478;28;20514;-85
2021/06/18 12:24:55;;;;;;;3.97;0.80;;;27.50;18.20;;;;;;5078019;28;20060;-87
2021/06/18 12:27:30;;;;;;;7.63;1.02;;;27.50;18.40;;;;;;5046308;28;20043;-86
2021/06/18 12:30:03;;;;;;;1.27;0.90;;;27.40;18.20;;;;;;5077524;28;20045;-86
2021/06/18 12:32:32;;;;;;;6.07;1.33;;;27.40;18.30;;;;;;5044096;28;20063;-87
2021/06/18 12:35:07;;;;;;;2.00;0.80;;;27.40;18.40;;;;;;5043806;28;20059;-87
2021/06/18 12:37:39;;;;;;;2.88;0.88;;;27.30;18.40;;;;;;5059883;28;20589;-86
2021/06/18 12:40:13;;;;;;;1.88;0.70;;;27.30;18.30;;;;;;5060706;28;20050;-87
2021/06/18 12:42:42;;;;;;;1.95;0.77;;;27.20;18.30;;;;;;5059587;28;20644;-88
2021/06/18 12:45:23;;;;;;;1.45;0.43;;;27.10;18.40;;;;;;5043230;28;20040;-87
2021/06/18 12:47:52;;;;;;;3.85;2.08;;;27.10;18.40;;;;;;5045861;28;20043;-86
2021/06/18 12:50:35;;;;;;;1.70;1.40;;;27.00;18.40;;;;;;5061562;28;20100;-87
2021/06/18 12:53:04;;;;;;;3.13;0.80;;;27.00;18.50;;;;;;5077529;28;20046;-87
2021/06/18 12:55:33;;;;;;;4.65;1.20;;;27.00;18.50;;;;;;5062548;28;20039;-86
2021/06/18 12:58:15;;;;;;;1.48;0.75;;;27.00;18.60;;;;;;4380268;32;325181;-85
2021/06/18 13:00:59;;;;;;;1.50;0.70;;;27.00;18.70;;;;;;5079869;28;20042;-87
2021/06/18 13:03:33;;;;;;;2.03;0.80;;;26.90;18.60;;;;;;5079465;28;20486;-85
2021/06/18 13:06:04;;;;;;;4.22;0.95;;;26.90;18.60;;;;;;5061386;28;20044;-84
2021/06/18 13:08:32;;;;;;;2.72;1.20;;;26.80;18.90;;;;;;5077109;28;20104;-85
2021/06/18 13:10:58;;;;;;;9.02;1.27;;;26.80;19.30;;;;;;5060461;28;20538;-85
2021/06/18 13:13:30;;;;;;;4.45;0.98;;;26.80;19.10;;;;;;5044754;28;20099;-84
2021/06/18 13:16:12;;;;;;;1.05;0.80;;;26.80;19.30;;;;;;5078089;28;20040;-83
2021/06/18 13:18:58;;;;;;;5.35;1.10;;;26.70;19.40;;;;;;5076768;28;20429;-85
2021/06/18 13:21:41;;;;;;;2.50;0.68;;;26.70;19.50;;;;;;5060483;28;20062;-83
2021/06/18 13:24:27;;;;;;;2.25;0.63;;;26.70;19.50;;;;;;5047744;28;20037;-84
2021/06/18 13:27:06;;;;;;;2.15;0.80;;;26.70;19.40;;;;;;5044046;28;20143;-84
2021/06/18 13:29:33;;;;;;;1.95;0.77;;;26.70;19.60;;;;;;5061901;28;20600;-87
2021/06/18 13:32:00;;;;;;;5.43;1.67;;;26.70;19.60;;;;;;5060380;28;20518;-84
2021/06/18 13:34:28;;;;;;;5.32;1.13;;;26.70;19.90;;;;;;5078404;28;20046;-85
2021/06/18 13:37:07;;;;;;;5.75;0.70;;;26.70;20.00;;;;;;5061248;28;20117;-84
2021/06/18 13:39:38;;;;;;;4.75;1.10;;;26.70;19.90;;;;;;5046821;28;20039;-89
2021/06/18 13:42:06;;;;;;;2.60;0.73;;;26.70;19.90;;;;;;5081077;28;20043;-85
2021/06/18 13:44:32;;;;;;;3.38;0.90;;;26.70;19.80;;;;;;5078434;28;20032;-84
2021/06/18 13:46:58;;;;;;;;;;;26.60;19.90;;;;;;5077027;28;20032;-84
2021/06/18 13:49:24;;;;;;;0.77;0.68;;;26.60;19.90;;;;;;5069209;28;19928;-86
2021/06/18 13:51:50;;;;;;;;;;;26.60;19.80;;;;;;5023346;28;20047;-85
2021/06/18 13:54:16;;;;;;;;;;;26.60;20.00;;;;;;5023329;28;19924;-86
2021/06/18 13:56:43;;;;;;;1.55;0.93;;;26.50;20.00;;;;;;5022775;28;19936;-86
2021/06/18 13:59:09;;;;;;;3.30;1.02;;;26.50;20.00;;;;;;5057902;28;20047;-87
2021/06/18 14:01:37;;;;;;;1.88;1.08;;;26.50;20.10;;;;;;5056317;28;20043;-86
2021/06/18 14:04:08;;;;;;;5.95;1.00;;;26.40;20.10;;;;;;5023022;28;20543;-90
2021/06/18 14:06:35;;;;;;;2.42;1.40;;;26.40;20.30;;;;;;5007789;28;20040;-85